sensor_id;sensor_type;location;lat;lon;timestamp;pressure;altitude;pressure_sealevel;temperature;humidity
7662;BME280;30314;48.184;11.510;2023-05-25T00:00:40;96218.63;;;10.99;96.12
7662;BME280;30314;48.184;11.510;2023-05-25T00:03:26;96207.31;;;10.94;96.17
7662;BME280;30314;48.184;11.510;2023-05-25T00:05:53;96193.59;;;10.92;97.67
7662;BME280;30314;48.184;11.510;2023-05-25T00:08:19;96211.19;;;11.02;99.33
7662;BME280;30314;48.184;11.510;2023-05-25T00:10:46;96198.03;;;10.96;95.88
7662;BME280;30314;48.184;11.510;2023-05-25T00:13:13;96209.38;;;10.97;97.05
7662;BME280;30314;48.184;11.510;2023-05-25T00:15:39;96210.25;;;10.92;98.88
7662;BME280;30314;48.184;11.510;2023-05-25T00:18:06;96213.16;;;10.91;99.07
7662;BME280;30314;48.184;11.510;2023-05-25T00:20:33;96214.47;;;10.93;97.25
7662;BME280;30314;48.184;11.510;2023-05-25T00:23:00;96207.94;;;10.80;97.44
7662;BME280;30314;48.184;11.510;2023-05-25T00:25:30;96221.97;;;10.81;97.73
7662;BME280;30314;48.184;11.510;2023-05-25T00:27:56;96214.81;;;10.81;97.42
7662;BME280;30314;48.184;11.510;2023-05-25T00:30:23;96215.56;;;10.87;97.24
7662;BME280;30314;48.184;11.510;2023-05-25T00:32:49;96215.00;;;10.90;96.80
7662;BME280;30314;48.184;11.510;2023-05-25T00:35:16;96217.09;;;10.93;97.37
7662;BME280;30314;48.184;11.510;2023-05-25T00:37:44;96214.16;;;10.95;96.50
7662;BME280;30314;48.184;11.510;2023-05-25T00:40:13;96204.09;;;10.97;95.74
7662;BME280;30314;48.184;11.510;2023-05-25T00:42:42;96174.91;;;10.83;93.01
7662;BME280;30314;48.184;11.510;2023-05-25T00:45:09;96194.88;;;10.94;92.90
7662;BME280;30314;48.184;11.510;2023-05-25T00:47:38;96208.03;;;10.99;95.45
7662;BME280;30314;48.184;11.510;2023-05-25T00:50:07;96199.56;;;11.03;92.92
7662;BME280;30314;48.184;11.510;2023-05-25T00:52:34;96185.56;;;11.02;94.03
7662;BME280;30314;48.184;11.510;2023-05-25T00:55:01;96184.75;;;11.02;94.12
7662;BME280;30314;48.184;11.510;2023-05-25T00:57:30;96186.91;;;10.99;96.23
7662;BME280;30314;48.184;11.510;2023-05-25T01:00:01;96192.75;;;10.96;94.74
7662;BME280;30314;48.184;11.510;2023-05-25T01:02:27;96196.16;;;10.97;93.19
7662;BME280;30314;48.184;11.510;2023-05-25T01:04:56;96185.66;;;10.92;95.39
7662;BME280;30314;48.184;11.510;2023-05-25T01:07:26;96183.81;;;10.92;97.38
7662;BME280;30314;48.184;11.510;2023-05-25T01:09:58;96184.59;;;10.93;96.06
7662;BME280;30314;48.184;11.510;2023-05-25T01:12:34;96194.38;;;10.92;97.45
7662;BME280;30314;48.184;11.510;2023-05-25T01:15:03;96198.06;;;10.91;96.05
7662;BME280;30314;48.184;11.510;2023-05-25T01:17:30;96193.34;;;10.88;95.83
7662;BME280;30314;48.184;11.510;2023-05-25T01:19:57;96182.34;;;10.81;95.86
7662;BME280;30314;48.184;11.510;2023-05-25T01:25:14;96206.28;;;10.90;95.11
7662;BME280;30314;48.184;11.510;2023-05-25T01:27:45;96191.78;;;10.87;97.50
7662;BME280;30314;48.184;11.510;2023-05-25T01:30:15;96196.50;;;10.90;95.84
7662;BME280;30314;48.184;11.510;2023-05-25T01:32:43;96192.84;;;10.86;96.32
7662;BME280;30314;48.184;11.510;2023-05-25T01:35:11;96203.47;;;10.81;97.42
7662;BME280;30314;48.184;11.510;2023-05-25T01:37:44;96202.41;;;10.82;96.77
7662;BME280;30314;48.184;11.510;2023-05-25T01:40:12;96194.47;;;10.82;98.78
7662;BME280;30314;48.184;11.510;2023-05-25T01:42:40;96182.16;;;10.72;99.55
7662;BME280;30314;48.184;11.510;2023-05-25T01:45:08;96198.72;;;10.78;99.33
7662;BME280;30314;48.184;11.510;2023-05-25T01:48:09;96199.28;;;10.75;99.87
7662;BME280;30314;48.184;11.510;2023-05-25T01:50:41;96204.56;;;10.75;100.00
7662;BME280;30314;48.184;11.510;2023-05-25T01:53:11;96205.38;;;10.70;100.00
7662;BME280;30314;48.184;11.510;2023-05-25T01:55:47;96206.69;;;10.72;100.00
7662;BME280;30314;48.184;11.510;2023-05-25T01:58:17;96205.13;;;10.71;100.00
7662;BME280;30314;48.184;11.510;2023-05-25T02:00:46;96211.16;;;10.77;100.00
7662;BME280;30314;48.184;11.510;2023-05-25T02:03:14;96215.63;;;10.77;100.00
7662;BME280;30314;48.184;11.510;2023-05-25T02:05:42;96209.84;;;10.75;100.00
7662;BME280;30314;48.184;11.510;2023-05-25T02:08:09;96209.28;;;10.78;100.00
7662;BME280;30314;48.184;11.510;2023-05-25T02:10:36;96206.44;;;10.74;100.00
7662;BME280;30314;48.184;11.510;2023-05-25T02:13:03;96200.91;;;10.70;100.00
7662;BME280;30314;48.184;11.510;2023-05-25T02:15:31;96196.63;;;10.75;100.00
7662;BME280;30314;48.184;11.510;2023-05-25T02:17:58;96191.66;;;10.73;100.00
7662;BME280;30314;48.184;11.510;2023-05-25T02:20:28;96198.00;;;10.72;100.00
7662;BME280;30314;48.184;11.510;2023-05-25T02:22:55;96193.53;;;10.67;100.00
7662;BME280;30314;48.184;11.510;2023-05-25T02:25:22;96192.81;;;10.62;100.00
7662;BME280;30314;48.184;11.510;2023-05-25T02:27:49;96177.81;;;10.52;100.00
7662;BME280;30314;48.184;11.510;2023-05-25T02:30:17;96184.06;;;10.61;100.00
7662;BME280;30314;48.184;11.510;2023-05-25T02:32:44;96170.94;;;10.56;100.00
7662;BME280;30314;48.184;11.510;2023-05-25T02:35:11;96184.06;;;10.66;100.00
7662;BME280;30314;48.184;11.510;2023-05-25T02:37:37;96179.84;;;10.65;100.00
7662;BME280;30314;48.184;11.510;2023-05-25T02:40:07;96179.84;;;10.65;100.00
7662;BME280;30314;48.184;11.510;2023-05-25T02:42:34;96176.91;;;10.67;100.00
7662;BME280;30314;48.184;11.510;2023-05-25T02:45:03;96181.91;;;10.68;100.00
7662;BME280;30314;48.184;11.510;2023-05-25T02:47:32;96186.91;;;10.70;100.00
7662;BME280;30314;48.184;11.510;2023-05-25T02:50:00;96182.09;;;10.77;100.00
7662;BME280;30314;48.184;11.510;2023-05-25T02:52:27;96184.69;;;10.82;100.00
7662;BME280;30314;48.184;11.510;2023-05-25T02:54:57;96178.63;;;10.82;100.00
7662;BME280;30314;48.184;11.510;2023-05-25T02:57:30;96174.09;;;10.88;100.00
7662;BME280;30314;48.184;11.510;2023-05-25T02:59:58;96168.50;;;10.89;100.00
7662;BME280;30314;48.184;11.510;2023-05-25T03:02:24;96176.09;;;10.96;100.00
7662;BME280;30314;48.184;11.510;2023-05-25T03:04:51;96177.97;;;10.95;100.00
7662;BME280;30314;48.184;11.510;2023-05-25T03:07:22;96185.84;;;11.00;100.00
7662;BME280;30314;48.184;11.510;2023-05-25T03:09:53;96181.00;;;11.08;100.00
7662;BME280;30314;48.184;11.510;2023-05-25T03:12:21;96159.91;;;11.03;100.00
7662;BME280;30314;48.184;11.510;2023-05-25T03:14:48;96176.16;;;11.20;100.00
7662;BME280;30314;48.184;11.510;2023-05-25T03:17:16;96162.94;;;11.20;100.00
7662;BME280;30314;48.184;11.510;2023-05-25T03:19:42;96172.25;;;11.37;100.00
7662;BME280;30314;48.184;11.510;2023-05-25T03:22:10;96184.06;;;11.45;100.00
7662;BME280;30314;48.184;11.510;2023-05-25T03:24:36;96180.47;;;11.60;100.00
7662;BME280;30314;48.184;11.510;2023-05-25T03:27:07;96186.28;;;11.56;100.00
7662;BME280;30314;48.184;11.510;2023-05-25T03:29:34;96185.75;;;11.60;100.00
7662;BME280;30314;48.184;11.510;2023-05-25T03:32:01;96190.97;;;11.65;100.00
7662;BME280;30314;48.184;11.510;2023-05-25T03:34:30;96190.75;;;11.61;100.00
7662;BME280;30314;48.184;11.510;2023-05-25T03:37:00;96190.47;;;11.63;100.00
7662;BME280;30314;48.184;11.510;2023-05-25T03:39:27;96192.31;;;11.62;100.00
7662;BME280;30314;48.184;11.510;2023-05-25T03:41:54;96188.25;;;11.70;100.00
7662;BME280;30314;48.184;11.510;2023-05-25T03:44:22;96186.47;;;11.65;100.00
7662;BME280;30314;48.184;11.510;2023-05-25T03:46:48;96196.19;;;11.70;100.00
7662;BME280;30314;48.184;11.510;2023-05-25T03:49:15;96189.69;;;11.81;100.00
7662;BME280;30314;48.184;11.510;2023-05-25T03:51:42;96196.56;;;11.82;100.00
7662;BME280;30314;48.184;11.510;2023-05-25T03:54:11;96200.59;;;11.80;100.00
7662;BME280;30314;48.184;11.510;2023-05-25T03:56:38;96166.94;;;11.61;100.00
7662;BME280;30314;48.184;11.510;2023-05-25T03:59:04;96195.63;;;11.73;100.00
7662;BME280;30314;48.184;11.510;2023-05-25T04:01:31;96196.91;;;11.76;100.00
7662;BME280;30314;48.184;11.510;2023-05-25T04:03:58;96190.34;;;11.73;100.00
7662;BME280;30314;48.184;11.510;2023-05-25T04:06:25;96192.28;;;11.87;100.00
7662;BME280;30314;48.184;11.510;2023-05-25T04:08:51;96204.94;;;11.90;100.00
7662;BME280;30314;48.184;11.510;2023-05-25T04:11:18;96207.63;;;11.84;100.00
7662;BME280;30314;48.184;11.510;2023-05-25T04:13:46;96209.25;;;11.86;100.00
7662;BME280;30314;48.184;11.510;2023-05-25T04:16:13;96218.22;;;11.84;100.00
7662;BME280;30314;48.184;11.510;2023-05-25T04:18:40;96216.59;;;11.89;100.00
7662;BME280;30314;48.184;11.510;2023-05-25T04:21:07;96214.53;;;11.86;100.00
7662;BME280;30314;48.184;11.510;2023-05-25T04:23:34;96209.44;;;11.89;100.00
7662;BME280;30314;48.184;11.510;2023-05-25T04:26:01;96212.09;;;11.89;100.00
7662;BME280;30314;48.184;11.510;2023-05-25T04:28:29;96223.41;;;11.95;100.00
7662;BME280;30314;48.184;11.510;2023-05-25T04:31:07;96216.59;;;11.89;100.00
7662;BME280;30314;48.184;11.510;2023-05-25T04:34:00;96222.13;;;11.92;100.00
7662;BME280;30314;48.184;11.510;2023-05-25T04:36:30;96219.63;;;12.01;100.00
7662;BME280;30314;48.184;11.510;2023-05-25T04:39:00;96224.63;;;12.03;100.00
7662;BME280;30314;48.184;11.510;2023-05-25T04:41:32;96217.81;;;11.96;100.00
7662;BME280;30314;48.184;11.510;2023-05-25T04:44:02;96223.41;;;11.95;100.00
7662;BME280;30314;48.184;11.510;2023-05-25T04:46:41;96221.06;;;11.93;100.00
7662;BME280;30314;48.184;11.510;2023-05-25T04:49:13;96219.66;;;11.96;100.00
7662;BME280;30314;48.184;11.510;2023-05-25T04:51:40;96220.69;;;12.00;100.00
7662;BME280;30314;48.184;11.510;2023-05-25T04:54:07;96220.63;;;12.05;100.00
7662;BME280;30314;48.184;11.510;2023-05-25T04:56:33;96222.75;;;12.03;100.00
7662;BME280;30314;48.184;11.510;2023-05-25T04:59:01;96222.19;;;12.06;100.00
7662;BME280;30314;48.184;11.510;2023-05-25T05:01:29;96228.34;;;12.02;100.00
7662;BME280;30314;48.184;11.510;2023-05-25T05:04:00;96230.72;;;12.03;100.00
7662;BME280;30314;48.184;11.510;2023-05-25T05:06:27;96230.13;;;12.06;100.00
7662;BME280;30314;48.184;11.510;2023-05-25T05:08:54;96236.28;;;12.02;100.00
7662;BME280;30314;48.184;11.510;2023-05-25T05:11:21;96238.19;;;11.96;100.00
7662;BME280;30314;48.184;11.510;2023-05-25T05:13:49;96244.56;;;11.95;100.00
7662;BME280;30314;48.184;11.510;2023-05-25T05:16:16;96247.16;;;12.00;100.00
7662;BME280;30314;48.184;11.510;2023-05-25T05:18:42;96243.44;;;12.01;100.00
7662;BME280;30314;48.184;11.510;2023-05-25T05:21:09;96242.41;;;11.97;100.00
7662;BME280;30314;48.184;11.510;2023-05-25T05:23:36;96245.38;;;11.95;100.00
7662;BME280;30314;48.184;11.510;2023-05-25T05:26:03;96240.28;;;11.99;100.00
7662;BME280;30314;48.184;11.510;2023-05-25T05:28:30;96242.66;;;12.01;100.00
7662;BME280;30314;48.184;11.510;2023-05-25T05:30:57;96248.44;;;12.03;100.00
7662;BME280;30314;48.184;11.510;2023-05-25T05:33:24;96253.69;;;12.08;100.00
7662;BME280;30314;48.184;11.510;2023-05-25T05:35:52;96248.38;;;12.08;100.00
7662;BME280;30314;48.184;11.510;2023-05-25T05:38:21;96248.09;;;12.09;100.00
7662;BME280;30314;48.184;11.510;2023-05-25T05:40:47;96239.78;;;11.97;100.00
7662;BME280;30314;48.184;11.510;2023-05-25T05:43:19;96264.50;;;12.11;100.00
7662;BME280;30314;48.184;11.510;2023-05-25T05:45:46;96261.03;;;12.11;100.00
7662;BME280;30314;48.184;11.510;2023-05-25T05:48:13;96254.41;;;12.14;100.00
7662;BME280;30314;48.184;11.510;2023-05-25T05:50:39;96261.53;;;12.13;100.00
7662;BME280;30314;48.184;11.510;2023-05-25T05:53:09;96263.78;;;12.25;100.00
7662;BME280;30314;48.184;11.510;2023-05-25T05:55:36;96261.63;;;12.27;100.00
7662;BME280;30314;48.184;11.510;2023-05-25T05:58:03;96263.25;;;12.23;100.00
7662;BME280;30314;48.184;11.510;2023-05-25T06:00:30;96261.75;;;12.17;100.00
7662;BME280;30314;48.184;11.510;2023-05-25T06:02:57;96267.69;;;12.27;100.00
7662;BME280;30314;48.184;11.510;2023-05-25T06:05:28;96266.94;;;12.27;100.00
7662;BME280;30314;48.184;11.510;2023-05-25T06:07:56;96266.00;;;12.37;100.00
7662;BME280;30314;48.184;11.510;2023-05-25T06:10:22;96262.53;;;12.36;100.00
7662;BME280;30314;48.184;11.510;2023-05-25T06:12:50;96267.66;;;12.33;100.00
7662;BME280;30314;48.184;11.510;2023-05-25T06:15:17;96268.19;;;12.30;100.00
7662;BME280;30314;48.184;11.510;2023-05-25T06:17:46;96264.44;;;12.36;100.00
7662;BME280;30314;48.184;11.510;2023-05-25T06:20:14;96264.84;;;12.43;100.00
7662;BME280;30314;48.184;11.510;2023-05-25T06:22:41;96273.59;;;12.44;100.00
7662;BME280;30314;48.184;11.510;2023-05-25T06:25:09;96268.91;;;12.35;100.00
7662;BME280;30314;48.184;11.510;2023-05-25T06:27:36;96273.66;;;12.38;100.00
7662;BME280;30314;48.184;11.510;2023-05-25T06:30:03;96273.66;;;12.38;100.00
7662;BME280;30314;48.184;11.510;2023-05-25T06:32:30;96275.16;;;12.45;100.00
7662;BME280;30314;48.184;11.510;2023-05-25T06:34:57;96282.53;;;12.48;100.00
7662;BME280;30314;48.184;11.510;2023-05-25T06:37:25;96282.03;;;12.46;100.00
7662;BME280;30314;48.184;11.510;2023-05-25T06:39:52;96282.47;;;12.53;100.00
7662;BME280;30314;48.184;11.510;2023-05-25T06:42:22;96286.38;;;12.55;100.00
7662;BME280;30314;48.184;11.510;2023-05-25T06:44:53;96287.19;;;12.56;100.00
7662;BME280;30314;48.184;11.510;2023-05-25T06:47:20;96285.53;;;12.60;100.00
7662;BME280;30314;48.184;11.510;2023-05-25T06:49:47;96289.03;;;12.55;100.00
7662;BME280;30314;48.184;11.510;2023-05-25T06:52:13;96288.66;;;12.62;100.00
7662;BME280;30314;48.184;11.510;2023-05-25T06:54:40;96292.19;;;12.58;100.00
7662;BME280;30314;48.184;11.510;2023-05-25T06:57:07;96298.50;;;12.62;100.00
7662;BME280;30314;48.184;11.510;2023-05-25T06:59:33;96302.44;;;12.64;100.00
7662;BME280;30314;48.184;11.510;2023-05-25T07:02:00;96299.47;;;12.66;100.00
7662;BME280;30314;48.184;11.510;2023-05-25T07:04:26;96300.84;;;12.63;100.00
7662;BME280;30314;48.184;11.510;2023-05-25T07:06:53;96307.03;;;12.59;100.00
7662;BME280;30314;48.184;11.510;2023-05-25T07:09:20;96301.72;;;12.59;100.00
7662;BME280;30314;48.184;11.510;2023-05-25T07:11:47;96299.78;;;12.64;100.00
7662;BME280;30314;48.184;11.510;2023-05-25T07:14:14;96303.44;;;12.68;100.00
7662;BME280;30314;48.184;11.510;2023-05-25T07:16:40;96299.22;;;12.67;100.00
7662;BME280;30314;48.184;11.510;2023-05-25T07:19:07;96301.84;;;12.67;100.00
7662;BME280;30314;48.184;11.510;2023-05-25T07:21:33;96304.44;;;12.73;100.00
7662;BME280;30314;48.184;11.510;2023-05-25T07:24:00;96307.94;;;12.68;100.00
7662;BME280;30314;48.184;11.510;2023-05-25T07:26:27;96298.13;;;12.68;100.00
7662;BME280;30314;48.184;11.510;2023-05-25T07:28:54;96299.59;;;12.80;100.00
7662;BME280;30314;48.184;11.510;2023-05-25T07:31:21;96301.16;;;12.81;100.00
7662;BME280;30314;48.184;11.510;2023-05-25T07:33:48;96313.59;;;12.80;100.00
7662;BME280;30314;48.184;11.510;2023-05-25T07:36:14;96321.16;;;12.73;100.00
7662;BME280;30314;48.184;11.510;2023-05-25T07:38:41;96308.00;;;12.63;100.00
7662;BME280;30314;48.184;11.510;2023-05-25T07:41:08;96314.91;;;12.83;100.00
7662;BME280;30314;48.184;11.510;2023-05-25T07:43:35;96311.75;;;12.81;100.00
7662;BME280;30314;48.184;11.510;2023-05-25T07:46:02;96318.63;;;12.82;100.00
7662;BME280;30314;48.184;11.510;2023-05-25T07:48:29;96318.13;;;12.80;100.00
7662;BME280;30314;48.184;11.510;2023-05-25T07:50:56;96328.88;;;12.89;100.00
7662;BME280;30314;48.184;11.510;2023-05-25T07:53:22;96334.88;;;12.94;100.00
7662;BME280;30314;48.184;11.510;2023-05-25T07:55:49;96333.81;;;12.95;100.00
7662;BME280;30314;48.184;11.510;2023-05-25T07:58:16;96330.19;;;13.05;100.00
7662;BME280;30314;48.184;11.510;2023-05-25T08:00:42;96335.50;;;13.05;100.00
7662;BME280;30314;48.184;11.510;2023-05-25T08:03:09;96333.47;;;13.16;100.00
7662;BME280;30314;48.184;11.510;2023-05-25T08:05:36;96333.84;;;13.09;100.00
7662;BME280;30314;48.184;11.510;2023-05-25T08:08:03;96333.34;;;13.07;100.00
7662;BME280;30314;48.184;11.510;2023-05-25T08:10:29;96337.38;;;13.05;100.00
7662;BME280;30314;48.184;11.510;2023-05-25T08:12:59;96342.81;;;13.14;100.00
7662;BME280;30314;48.184;11.510;2023-05-25T08:15:26;96346.28;;;13.28;100.00
7662;BME280;30314;48.184;11.510;2023-05-25T08:17:53;96346.19;;;13.33;100.00
7662;BME280;30314;48.184;11.510;2023-05-25T08:20:21;96351.00;;;13.31;100.00
7662;BME280;30314;48.184;11.510;2023-05-25T08:22:49;96353.75;;;13.26;100.00
7662;BME280;30314;48.184;11.510;2023-05-25T08:25:18;96343.91;;;13.27;100.00
7662;BME280;30314;48.184;11.510;2023-05-25T08:27:45;96347.06;;;13.29;100.00
7662;BME280;30314;48.184;11.510;2023-05-25T08:30:12;96346.88;;;13.25;100.00
7662;BME280;30314;48.184;11.510;2023-05-25T08:32:39;96352.28;;;13.34;100.00
7662;BME280;30314;48.184;11.510;2023-05-25T08:35:06;96353.38;;;13.33;100.00
7662;BME280;30314;48.184;11.510;2023-05-25T08:37:33;96346.50;;;13.32;100.00
7662;BME280;30314;48.184;11.510;2023-05-25T08:40:01;96354.94;;;13.34;100.00
7662;BME280;30314;48.184;11.510;2023-05-25T08:42:28;96350.03;;;13.41;100.00
7662;BME280;30314;48.184;11.510;2023-05-25T08:44:57;96356.91;;;13.42;100.00
7662;BME280;30314;48.184;11.510;2023-05-25T08:47:25;96355.38;;;13.55;100.00
7662;BME280;30314;48.184;11.510;2023-05-25T08:49:55;96360.97;;;13.53;100.00
7662;BME280;30314;48.184;11.510;2023-05-25T08:52:22;96357.81;;;13.51;100.00
7662;BME280;30314;48.184;11.510;2023-05-25T08:54:52;96358.88;;;13.36;100.00
7662;BME280;30314;48.184;11.510;2023-05-25T08:57:34;96364.22;;;13.50;100.00
7662;BME280;30314;48.184;11.510;2023-05-25T09:02:40;96371.59;;;13.53;100.00
7662;BME280;30314;48.184;11.510;2023-05-25T09:05:08;96378.19;;;13.56;100.00
7662;BME280;30314;48.184;11.510;2023-05-25T09:07:35;96377.09;;;13.57;100.00
7662;BME280;30314;48.184;11.510;2023-05-25T09:10:02;96377.91;;;13.58;100.00
7662;BME280;30314;48.184;11.510;2023-05-25T09:12:29;96377.22;;;13.66;100.00
7662;BME280;30314;48.184;11.510;2023-05-25T09:14:57;96378.28;;;13.65;100.00
7662;BME280;30314;48.184;11.510;2023-05-25T09:17:24;96382.63;;;13.61;100.00
7662;BME280;30314;48.184;11.510;2023-05-25T09:19:52;96371.31;;;13.55;100.00
7662;BME280;30314;48.184;11.510;2023-05-25T09:22:18;96376.81;;;13.59;100.00
7662;BME280;30314;48.184;11.510;2023-05-25T09:24:45;96386.47;;;13.69;100.00
7662;BME280;30314;48.184;11.510;2023-05-25T09:27:20;96377.63;;;13.73;100.00
7662;BME280;30314;48.184;11.510;2023-05-25T09:29:48;96383.53;;;13.84;100.00
7662;BME280;30314;48.184;11.510;2023-05-25T09:32:16;96385.53;;;13.92;100.00
7662;BME280;30314;48.184;11.510;2023-05-25T09:34:45;96401.06;;;13.99;100.00
7662;BME280;30314;48.184;11.510;2023-05-25T09:37:12;96401.44;;;14.06;100.00
7662;BME280;30314;48.184;11.510;2023-05-25T09:39:41;96405.97;;;13.92;100.00
7662;BME280;30314;48.184;11.510;2023-05-25T09:42:08;96403.72;;;13.99;100.00
7662;BME280;30314;48.184;11.510;2023-05-25T09:44:35;96405.75;;;13.88;100.00
7662;BME280;30314;48.184;11.510;2023-05-25T09:47:03;96406.38;;;13.99;100.00
7662;BME280;30314;48.184;11.510;2023-05-25T09:49:30;96408.22;;;13.99;100.00
7662;BME280;30314;48.184;11.510;2023-05-25T09:51:57;96405.09;;;13.97;100.00
7662;BME280;30314;48.184;11.510;2023-05-25T09:54:25;96399.66;;;14.02;100.00
7662;BME280;30314;48.184;11.510;2023-05-25T09:56:52;96399.72;;;14.16;100.00
7662;BME280;30314;48.184;11.510;2023-05-25T09:59:21;96400.69;;;14.20;100.00
7662;BME280;30314;48.184;11.510;2023-05-25T10:01:51;96402.38;;;14.16;100.00
7662;BME280;30314;48.184;11.510;2023-05-25T10:04:20;96408.81;;;14.09;100.00
7662;BME280;30314;48.184;11.510;2023-05-25T10:06:47;96408.78;;;14.15;100.00
7662;BME280;30314;48.184;11.510;2023-05-25T10:09:17;96407.69;;;14.16;100.00
7662;BME280;30314;48.184;11.510;2023-05-25T10:11:44;96401.28;;;14.17;100.00
7662;BME280;30314;48.184;11.510;2023-05-25T10:14:13;96406.41;;;14.27;100.00
7662;BME280;30314;48.184;11.510;2023-05-25T10:16:45;96409.56;;;14.29;100.00
7662;BME280;30314;48.184;11.510;2023-05-25T10:19:18;96413.50;;;14.32;100.00
7662;BME280;30314;48.184;11.510;2023-05-25T10:21:55;96410.72;;;14.37;100.00
7662;BME280;30314;48.184;11.510;2023-05-25T10:27:09;96413.88;;;14.53;100.00
7662;BME280;30314;48.184;11.510;2023-05-25T10:29:59;96416.63;;;14.62;100.00
7662;BME280;30314;48.184;11.510;2023-05-25T10:32:28;96413.75;;;14.58;100.00
7662;BME280;30314;48.184;11.510;2023-05-25T10:34:56;96410.72;;;14.51;100.00
7662;BME280;30314;48.184;11.510;2023-05-25T10:37:25;96396.34;;;14.52;100.00
7662;BME280;30314;48.184;11.510;2023-05-25T10:39:56;96404.00;;;14.68;100.00
7662;BME280;30314;48.184;11.510;2023-05-25T10:42:24;96407.28;;;14.87;100.00
7662;BME280;30314;48.184;11.510;2023-05-25T10:44:51;96408.03;;;14.79;100.00
7662;BME280;30314;48.184;11.510;2023-05-25T10:47:18;96404.97;;;14.72;100.00
7662;BME280;30314;48.184;11.510;2023-05-25T10:49:56;96403.41;;;14.71;100.00
7662;BME280;30314;48.184;11.510;2023-05-25T10:52:30;96410.09;;;14.82;100.00
7662;BME280;30314;48.184;11.510;2023-05-25T10:54:59;96412.06;;;14.76;100.00
7662;BME280;30314;48.184;11.510;2023-05-25T10:57:30;96408.50;;;14.81;100.00
7662;BME280;30314;48.184;11.510;2023-05-25T11:00:06;96411.66;;;14.83;100.00
7662;BME280;30314;48.184;11.510;2023-05-25T11:02:50;96410.84;;;14.83;100.00
7662;BME280;30314;48.184;11.510;2023-05-25T11:07:52;96410.94;;;14.91;100.00
7662;BME280;30314;48.184;11.510;2023-05-25T11:13:45;96408.03;;;15.02;100.00
7662;BME280;30314;48.184;11.510;2023-05-25T11:18:40;96400.78;;;15.16;100.00
7662;BME280;30314;48.184;11.510;2023-05-25T11:26:33;96404.13;;;15.22;100.00
7662;BME280;30314;48.184;11.510;2023-05-25T11:29:10;96406.22;;;15.25;100.00
7662;BME280;30314;48.184;11.510;2023-05-25T11:31:37;96406.38;;;15.29;100.00
7662;BME280;30314;48.184;11.510;2023-05-25T11:34:09;96401.22;;;15.32;100.00
7662;BME280;30314;48.184;11.510;2023-05-25T11:36:37;96404.38;;;15.34;100.00
7662;BME280;30314;48.184;11.510;2023-05-25T11:39:05;96395.09;;;15.46;100.00
7662;BME280;30314;48.184;11.510;2023-05-25T11:41:51;96391.81;;;15.49;100.00
7662;BME280;30314;48.184;11.510;2023-05-25T11:44:26;96392.66;;;15.58;100.00
7662;BME280;30314;48.184;11.510;2023-05-25T11:46:55;96395.97;;;15.64;100.00
7662;BME280;30314;48.184;11.510;2023-05-25T11:49:27;96400.69;;;15.67;100.00
7662;BME280;30314;48.184;11.510;2023-05-25T11:51:55;96395.09;;;15.77;100.00
7662;BME280;30314;48.184;11.510;2023-05-25T11:54:24;96393.53;;;15.76;100.00
7662;BME280;30314;48.184;11.510;2023-05-25T11:56:52;96381.13;;;15.72;100.00
7662;BME280;30314;48.184;11.510;2023-05-25T11:59:22;96385.78;;;15.89;100.00
7662;BME280;30314;48.184;11.510;2023-05-25T12:01:55;96363.16;;;15.77;100.00
7662;BME280;30314;48.184;11.510;2023-05-25T12:04:22;96383.75;;;15.95;100.00
7662;BME280;30314;48.184;11.510;2023-05-25T12:06:50;96380.44;;;15.89;100.00
7662;BME280;30314;48.184;11.510;2023-05-25T12:09:20;96381.66;;;15.83;100.00
7662;BME280;30314;48.184;11.510;2023-05-25T12:11:47;96376.69;;;15.90;100.00
7662;BME280;30314;48.184;11.510;2023-05-25T12:14:14;96375.50;;;16.05;100.00
7662;BME280;30314;48.184;11.510;2023-05-25T12:16:41;96380.97;;;16.09;100.00
7662;BME280;30314;48.184;11.510;2023-05-25T12:19:10;96370.81;;;16.11;100.00
7662;BME280;30314;48.184;11.510;2023-05-25T12:21:40;96378.03;;;16.19;100.00
7662;BME280;30314;48.184;11.510;2023-05-25T12:24:08;96371.81;;;16.32;100.00
7662;BME280;30314;48.184;11.510;2023-05-25T12:26:46;96377.13;;;16.32;100.00
7662;BME280;30314;48.184;11.510;2023-05-25T12:29:13;96380.78;;;16.37;100.00
7662;BME280;30314;48.184;11.510;2023-05-25T12:31:40;96381.25;;;16.39;100.00
7662;BME280;30314;48.184;11.510;2023-05-25T12:34:12;96375.59;;;16.49;100.00
7662;BME280;30314;48.184;11.510;2023-05-25T12:39:08;96368.09;;;16.51;99.74
7662;BME280;30314;48.184;11.510;2023-05-25T12:41:46;96361.78;;;16.47;96.34
7662;BME280;30314;48.184;11.510;2023-05-25T12:44:23;96362.00;;;16.59;100.00
7662;BME280;30314;48.184;11.510;2023-05-25T12:46:52;96365.78;;;16.67;100.00
7662;BME280;30314;48.184;11.510;2023-05-25T12:49:30;96363.72;;;16.73;100.00
7662;BME280;30314;48.184;11.510;2023-05-25T12:51:59;96354.97;;;16.90;94.28
7662;BME280;30314;48.184;11.510;2023-05-25T12:57:05;96352.31;;;16.81;96.79
7662;BME280;30314;48.184;11.510;2023-05-25T12:59:34;96354.31;;;16.93;94.51
7662;BME280;30314;48.184;11.510;2023-05-25T13:02:01;96353.22;;;16.94;96.98
7662;BME280;30314;48.184;11.510;2023-05-25T13:04:28;96342.41;;;17.08;92.17
7662;BME280;30314;48.184;11.510;2023-05-25T13:06:55;96351.34;;;17.12;90.93
7662;BME280;30314;48.184;11.510;2023-05-25T13:09:23;96347.13;;;16.94;94.26
7662;BME280;30314;48.184;11.510;2023-05-25T13:11:57;96331.13;;;16.94;95.99
7662;BME280;30314;48.184;11.510;2023-05-25T13:14:25;96341.31;;;17.00;100.00
7662;BME280;30314;48.184;11.510;2023-05-25T13:16:53;96341.00;;;17.11;95.72
7662;BME280;30314;48.184;11.510;2023-05-25T13:19:21;96336.59;;;17.15;98.30
7662;BME280;30314;48.184;11.510;2023-05-25T13:21:50;96337.22;;;17.21;100.00
7662;BME280;30314;48.184;11.510;2023-05-25T13:24:18;96336.09;;;17.30;97.64
7662;BME280;30314;48.184;11.510;2023-05-25T13:26:45;96334.47;;;17.47;97.83